createdAt,value
2023-04-15T00:02:18.555Z,102378.06
2023-04-15T00:05:23.966Z,102385.53
2023-04-15T00:08:31.040Z,102383.13
2023-04-15T00:11:36.125Z,102387.31
2023-04-15T00:14:41.279Z,102375.50
2023-04-15T00:17:46.509Z,102388.31
2023-04-15T00:20:52.658Z,102382.22
2023-04-15T00:23:59.513Z,102383.13
2023-04-15T00:27:04.821Z,102385.78
2023-04-15T00:30:10.663Z,102380.59
2023-04-15T00:33:16.551Z,102385.66
2023-04-15T00:36:21.613Z,102378.91
2023-04-15T00:39:30.030Z,102378.75
2023-04-15T00:42:36.126Z,102379.75
2023-04-15T00:45:41.328Z,102382.19
2023-04-15T00:48:49.285Z,102383.03
2023-04-15T00:51:54.473Z,102384.75
2023-04-15T00:55:01.272Z,102383.03
2023-04-15T00:58:06.491Z,102379.06
2023-04-15T01:01:12.739Z,102369.75
2023-04-15T01:04:18.563Z,102382.44
2023-04-15T01:07:23.702Z,102384.09
2023-04-15T01:10:30.829Z,102378.28
2023-04-15T01:13:36.786Z,102387.66
2023-04-15T01:16:42.034Z,102372.47
2023-04-15T01:19:47.584Z,102381.03
2023-04-15T01:22:52.844Z,102379.50
2023-04-15T01:26:00.303Z,102383.78
2023-04-15T01:29:05.470Z,102375.47
2023-04-15T01:32:12.420Z,102378.00
2023-04-15T01:35:17.578Z,102380.66
2023-04-15T01:38:22.842Z,102381.50
2023-04-15T01:41:30.355Z,102378.09
2023-04-15T01:44:35.387Z,102381.63
2023-04-15T01:47:41.376Z,102374.16
2023-04-15T01:50:48.487Z,102386.81
2023-04-15T01:53:53.623Z,102378.41
2023-04-15T01:57:00.046Z,102379.34
2023-04-15T02:00:07.734Z,102381.16
2023-04-15T02:03:18.549Z,102383.66
2023-04-15T02:06:24.541Z,102383.00
2023-04-15T02:09:30.090Z,102380.50
2023-04-15T02:12:36.530Z,102386.34
2023-04-15T02:15:41.851Z,102378.00
2023-04-15T02:18:47.567Z,102377.94
2023-04-15T02:21:52.668Z,102383.94
2023-04-15T02:24:57.719Z,102386.53
2023-04-15T02:28:04.542Z,102377.34
2023-04-15T02:31:10.074Z,102375.72
2023-04-15T02:34:15.448Z,102374.81
2023-04-15T02:37:24.800Z,102380.75
2023-04-15T02:40:29.849Z,102380.91
2023-04-15T02:43:36.501Z,102391.81
2023-04-15T02:46:42.412Z,102384.16
2023-04-15T02:49:47.790Z,102391.84
2023-04-15T02:52:53.252Z,102390.25
2023-04-15T02:55:59.366Z,102392.00
2023-04-15T02:59:06.163Z,102383.59
2023-04-15T03:02:11.380Z,102383.63
2023-04-15T03:05:16.672Z,102387.09
2023-04-15T03:08:27.584Z,102393.00
2023-04-15T03:11:37.130Z,102397.25
2023-04-15T03:14:44.166Z,102393.16
2023-04-15T03:17:49.817Z,102390.53
2023-04-15T03:20:55.566Z,102393.97
2023-04-15T03:24:02.644Z,102397.41
2023-04-15T03:27:08.610Z,102392.34
2023-04-15T03:30:16.261Z,102399.19
2023-04-15T03:33:21.656Z,102394.03
2023-04-15T03:36:27.413Z,102393.16
2023-04-15T03:39:32.580Z,102394.06
2023-04-15T03:42:37.646Z,102404.19
2023-04-15T03:45:44.376Z,102390.66
2023-04-15T03:48:49.427Z,102404.19
2023-04-15T03:51:54.828Z,102404.91
2023-04-15T03:54:59.862Z,102399.00
2023-04-15T03:58:05.207Z,102416.75
2023-04-15T04:01:13.190Z,102407.66
2023-04-15T04:04:18.752Z,102404.19
2023-04-15T04:07:25.747Z,102410.13
2023-04-15T04:10:31.048Z,102408.47
2023-04-15T04:13:36.302Z,102407.69
2023-04-15T04:16:42.843Z,102406.13
2023-04-15T04:19:47.909Z,102424.13
2023-04-15T04:22:53.043Z,102420.72
2023-04-15T04:25:58.327Z,102422.41
2023-04-15T04:29:03.700Z,102426.59
2023-04-15T04:32:11.040Z,102433.25
2023-04-15T04:35:16.241Z,102428.00
2023-04-15T04:38:21.466Z,102434.69
2023-04-15T04:41:26.651Z,102442.38
2023-04-15T04:44:31.712Z,102443.19
2023-04-15T04:47:38.358Z,102444.91
2023-04-15T04:50:43.608Z,102450.88
2023-04-15T04:53:48.826Z,102434.09
2023-04-15T04:56:54.000Z,102441.81
2023-04-15T04:59:59.207Z,102444.41
2023-04-15T05:03:05.964Z,102438.53
2023-04-15T05:06:11.445Z,102442.03
2023-04-15T05:09:16.620Z,102445.41
2023-04-15T05:12:21.657Z,102447.97
2023-04-15T05:15:26.692Z,102444.66
2023-04-15T05:18:33.338Z,102442.16
2023-04-15T05:21:39.542Z,102449.69
2023-04-15T05:24:44.784Z,102443.91
2023-04-15T05:27:49.880Z,102438.03
2023-04-15T05:30:55.100Z,102444.84
2023-04-15T05:34:01.771Z,102445.81
2023-04-15T05:37:07.134Z,102450.06
2023-04-15T05:40:14.469Z,102448.50
2023-04-15T05:43:19.556Z,102445.25
2023-04-15T05:46:24.841Z,102453.72
2023-04-15T05:49:32.033Z,102451.22
2023-04-15T05:52:37.227Z,102449.69
2023-04-15T05:55:42.279Z,102449.78
2023-04-15T05:58:47.452Z,102453.34
2023-04-15T06:01:53.766Z,102450.94
2023-04-15T06:05:01.166Z,102468.75
2023-04-15T06:08:06.737Z,102472.47
2023-04-15T06:11:11.823Z,102468.28
2023-04-15T06:14:17.109Z,102476.72
2023-04-15T06:17:22.249Z,102478.66
2023-04-15T06:20:29.022Z,102472.06
2023-04-15T06:23:36.608Z,102478.13
2023-04-15T06:26:41.750Z,102477.41
2023-04-15T06:29:46.780Z,102479.56
2023-04-15T06:32:51.904Z,102473.03
2023-04-15T06:35:58.712Z,102467.66
2023-04-15T06:39:04.067Z,102481.22
2023-04-15T06:42:12.489Z,102478.09
2023-04-15T06:45:17.867Z,102481.47
2023-04-15T06:48:22.898Z,102476.72
2023-04-15T06:51:29.515Z,102492.53
2023-04-15T06:54:34.561Z,102491.91
2023-04-15T06:57:39.644Z,102499.44
2023-04-15T07:00:44.976Z,102496.84
2023-04-15T07:03:50.330Z,102496.50
2023-04-15T07:06:56.936Z,102506.44
2023-04-15T07:10:03.421Z,102506.31
2023-04-15T07:13:09.026Z,102507.59
2023-04-15T07:16:16.168Z,102500.69
2023-04-15T07:19:21.202Z,102510.09
2023-04-15T07:22:27.747Z,102510.88
2023-04-15T07:25:32.853Z,102512.69
2023-04-15T07:28:38.100Z,102514.97
2023-04-15T07:31:43.447Z,102511.72
2023-04-15T07:34:48.627Z,102515.25
2023-04-15T07:37:55.480Z,102517.00
2023-04-15T07:41:00.690Z,102525.94
2023-04-15T07:44:06.129Z,102523.59
2023-04-15T07:47:11.951Z,102521.97
2023-04-15T07:50:17.454Z,102526.22
2023-04-15T07:53:24.180Z,102520.81
2023-04-15T07:56:29.275Z,102526.75
2023-04-15T07:59:34.436Z,102540.06
2023-04-15T08:02:40.465Z,102529.91
2023-04-15T08:05:47.378Z,102528.47
2023-04-15T08:08:54.667Z,102537.63
2023-04-15T08:11:59.818Z,102530.03
2023-04-15T08:15:05.179Z,102527.69
2023-04-15T08:18:13.846Z,102535.34
2023-04-15T08:21:20.055Z,102533.56
2023-04-15T08:24:27.457Z,102529.22
2023-04-15T08:27:32.527Z,102529.25
2023-04-15T08:30:37.709Z,102520.28
2023-04-15T08:33:42.858Z,102526.16
2023-04-15T08:36:47.925Z,102519.53
2023-04-15T08:39:54.531Z,102521.13
2023-04-15T08:43:00.020Z,102524.63
2023-04-15T08:46:06.993Z,102536.53
2023-04-15T08:49:13.583Z,102527.22
2023-04-15T08:52:18.671Z,102535.59
2023-04-15T08:55:25.907Z,102527.94
2023-04-15T08:58:31.617Z,102528.81
2023-04-15T09:01:37.489Z,102534.78
2023-04-15T09:04:42.571Z,102533.97
2023-04-15T09:07:47.822Z,102528.00
2023-04-15T09:10:55.197Z,102536.59
2023-04-15T09:14:00.360Z,102531.56
2023-04-15T09:17:06.231Z,102531.53
2023-04-15T09:20:13.939Z,102528.19
2023-04-15T09:23:19.130Z,102540.03
2023-04-15T09:26:34.580Z,102538.34
2023-04-15T09:29:39.629Z,102541.75
2023-04-15T09:32:52.036Z,102538.44
2023-04-15T09:36:01.963Z,102548.69
2023-04-15T09:39:07.351Z,102551.22
2023-04-15T09:42:17.992Z,102560.63
2023-04-15T09:45:25.708Z,102557.13
2023-04-15T09:48:32.269Z,102553.75
2023-04-15T09:51:37.868Z,102559.72
2023-04-15T09:54:42.901Z,102559.81
2023-04-15T09:57:49.951Z,102565.69
2023-04-15T10:00:56.812Z,102559.75
2023-04-15T10:04:05.998Z,102569.06
2023-04-15T10:07:11.841Z,102559.63
2023-04-15T10:10:18.118Z,102563.06
2023-04-15T10:13:26.112Z,102569.06
2023-04-15T10:16:31.614Z,102567.28
2023-04-15T10:19:38.957Z,102574.06
2023-04-15T10:22:44.566Z,102576.69
2023-04-15T10:25:50.453Z,102583.41
2023-04-15T10:28:58.481Z,102580.78
2023-04-15T10:32:05.633Z,102579.31
2023-04-15T10:35:11.314Z,102587.59
2023-04-15T10:38:36.801Z,102589.38
2023-04-15T10:45:08.658Z,102585.22
2023-04-15T10:48:18.571Z,102587.72
2023-04-15T10:51:31.639Z,102586.16
2023-04-15T10:54:39.025Z,102581.97
2023-04-15T10:57:45.421Z,102583.75
2023-04-15T11:00:54.891Z,102588.84
2023-04-15T11:03:59.988Z,102587.16
2023-04-15T11:07:08.762Z,102590.53
2023-04-15T11:10:54.039Z,102593.88
2023-04-15T11:13:59.580Z,102593.28
2023-04-15T11:17:06.548Z,102594.09
2023-04-15T11:20:17.745Z,102596.66
2023-04-15T11:23:30.336Z,102599.31
2023-04-15T11:26:35.636Z,102594.88
2023-04-15T11:29:40.852Z,102599.31
2023-04-15T11:32:47.285Z,102608.63
2023-04-15T11:35:52.819Z,102609.50
2023-04-15T11:39:00.027Z,102610.34
2023-04-15T11:42:05.361Z,102602.78
2023-04-15T11:45:11.401Z,102616.34
2023-04-15T11:48:18.467Z,102617.03
2023-04-15T11:51:23.663Z,102622.22
2023-04-15T11:54:28.765Z,102623.88
2023-04-15T11:57:34.001Z,102618.00
2023-04-15T12:00:41.679Z,102622.22
2023-04-15T12:03:50.283Z,102616.41
2023-04-15T12:06:56.032Z,102615.31
2023-04-15T12:10:02.087Z,102619.75
2023-04-15T12:13:09.616Z,102627.38
2023-04-15T12:16:15.796Z,102629.03
2023-04-15T12:19:26.469Z,102634.09
2023-04-15T12:22:31.519Z,102638.94
2023-04-15T12:25:37.394Z,102634.84
2023-04-15T12:28:42.910Z,102631.53
2023-04-15T12:31:52.619Z,102643.41
2023-04-15T12:34:59.703Z,102637.19
2023-04-15T12:38:04.766Z,102642.28
2023-04-15T12:41:10.933Z,102635.56
2023-04-15T12:44:16.215Z,102643.47
2023-04-15T12:47:21.427Z,102641.69
2023-04-15T12:50:28.170Z,102643.47
2023-04-15T12:53:33.343Z,102645.16
2023-04-15T12:56:38.424Z,102635.72
2023-04-15T12:59:43.562Z,102642.47
2023-04-15T13:02:49.413Z,102638.28
2023-04-15T13:05:57.810Z,102638.13
2023-04-15T13:09:05.258Z,102639.06
2023-04-15T13:12:13.916Z,102640.69
2023-04-15T13:15:20.802Z,102649.19
2023-04-15T13:18:26.024Z,102649.91
2023-04-15T13:21:35.746Z,102644.97
2023-04-15T13:24:41.296Z,102649.91
2023-04-15T13:27:46.752Z,102638.91
2023-04-15T13:30:52.398Z,102649.91
2023-04-15T13:33:57.953Z,102662.53
2023-04-15T13:37:09.949Z,102670.34
2023-04-15T13:40:15.150Z,102666.97
2023-04-15T13:43:21.674Z,102667.06
2023-04-15T13:46:27.310Z,102670.34
2023-04-15T13:49:32.372Z,102669.44
2023-04-15T13:52:39.117Z,102676.34
2023-04-15T13:55:44.844Z,102677.16
2023-04-15T13:58:50.027Z,102672.81
2023-04-15T14:01:55.289Z,102677.06
2023-04-15T14:05:00.409Z,102677.19
2023-04-15T14:08:07.057Z,102670.09
2023-04-15T14:11:12.753Z,102674.34
2023-04-15T14:14:17.820Z,102676.00
2023-04-15T14:17:22.982Z,102675.84
2023-04-15T14:20:28.173Z,102675.91
2023-04-15T14:23:34.766Z,102678.47
2023-04-15T14:26:39.885Z,102679.03
2023-04-15T14:29:44.996Z,102674.19
2023-04-15T14:32:50.486Z,102676.78
2023-04-15T14:35:55.597Z,102684.97
2023-04-15T14:39:02.145Z,102683.25
2023-04-15T14:42:07.223Z,102688.09
2023-04-15T14:45:13.124Z,102677.03
2023-04-15T14:48:18.423Z,102684.63
2023-04-15T14:51:24.641Z,102682.06
2023-04-15T14:54:32.641Z,102693.16
2023-04-15T14:57:38.332Z,102688.84
2023-04-15T15:00:44.832Z,102691.28
2023-04-15T15:03:50.365Z,102685.44
2023-04-15T15:06:55.827Z,102695.63
2023-04-15T15:10:02.436Z,102694.78
2023-04-15T15:13:09.376Z,102689.66
2023-04-15T15:16:15.426Z,102694.03
2023-04-15T15:19:20.805Z,102689.78
2023-04-15T15:22:26.840Z,102697.41
2023-04-15T15:25:33.271Z,102698.81
2023-04-15T15:28:38.436Z,102700.47
2023-04-15T15:31:43.619Z,102692.78
2023-04-15T15:34:49.212Z,102701.31
2023-04-15T15:37:55.065Z,102698.81
2023-04-15T15:41:01.598Z,102698.63
2023-04-15T15:44:06.620Z,102701.06
2023-04-15T15:47:12.105Z,102689.34
2023-04-15T15:50:17.276Z,102690.22
2023-04-15T15:53:24.393Z,102698.63
2023-04-15T15:56:31.019Z,102706.22
2023-04-15T15:59:36.456Z,102707.00
2023-04-15T16:05:49.698Z,102696.63
2023-04-15T16:08:54.868Z,102696.53
2023-04-15T16:12:02.101Z,102703.31
2023-04-15T16:15:08.320Z,102708.16
2023-04-15T16:18:13.336Z,102711.53
2023-04-15T16:21:19.593Z,102719.91
2023-04-15T16:24:25.895Z,102714.72
2023-04-15T16:27:32.832Z,102724.84
2023-04-15T16:30:38.910Z,102730.72
2023-04-15T16:33:44.145Z,102723.00
2023-04-15T16:36:49.457Z,102726.41
2023-04-15T16:39:55.192Z,102722.00
2023-04-15T16:43:01.656Z,102717.69
2023-04-15T16:46:06.759Z,102721.91
2023-04-15T16:49:12.346Z,102721.69
2023-04-15T16:52:17.446Z,102731.06
2023-04-15T16:55:22.732Z,102720.81
2023-04-15T16:58:29.385Z,102731.78
2023-04-15T17:01:34.720Z,102727.56
2023-04-15T17:04:40.293Z,102720.69
2023-04-15T17:07:45.513Z,102718.09
2023-04-15T17:10:51.878Z,102721.50
2023-04-15T17:13:58.540Z,102726.38
2023-04-15T17:17:04.260Z,102718.81
2023-04-15T17:20:09.820Z,102729.72
2023-04-15T17:23:14.963Z,102732.13
2023-04-15T17:26:20.352Z,102737.88
2023-04-15T17:29:27.140Z,102742.03
2023-04-15T17:32:34.786Z,102730.22
2023-04-15T17:35:40.987Z,102725.78
2023-04-15T17:38:46.590Z,102727.44
2023-04-15T17:41:51.676Z,102734.81
2023-04-15T17:44:58.886Z,102729.59
2023-04-15T17:48:04.948Z,102740.47
2023-04-15T17:51:12.851Z,102740.38
2023-04-15T17:54:17.925Z,102749.56
2023-04-15T17:57:23.009Z,102750.31
2023-04-15T18:00:29.731Z,102760.34
2023-04-15T18:03:35.041Z,102752.72
2023-04-15T18:06:40.562Z,102758.34
2023-04-15T18:09:45.782Z,102758.34
2023-04-15T18:12:50.825Z,102760.00
2023-04-15T18:15:57.667Z,102765.84
2023-04-15T18:19:02.763Z,102775.78
2023-04-15T18:22:07.893Z,102761.16
2023-04-15T18:25:12.970Z,102762.16
2023-04-15T18:28:18.183Z,102758.63
2023-04-15T18:31:24.887Z,102756.06
2023-04-15T18:34:30.212Z,102769.41
2023-04-15T18:37:35.741Z,102758.38
2023-04-15T18:40:41.085Z,102769.38
2023-04-15T18:43:46.130Z,102774.28
2023-04-15T18:46:52.687Z,102776.94
2023-04-15T18:49:58.555Z,102776.81
2023-04-15T18:53:03.704Z,102777.69
2023-04-15T18:56:09.286Z,102774.91
2023-04-15T18:59:29.659Z,102776.59
2023-04-15T19:02:37.533Z,102779.88
2023-04-15T19:05:42.744Z,102776.28
2023-04-15T19:08:47.837Z,102777.06
2023-04-15T19:11:52.990Z,102785.38
2023-04-15T19:14:58.558Z,102776.16
2023-04-15T19:18:10.434Z,102785.34
2023-04-15T19:21:15.591Z,102787.09
2023-04-15T19:24:21.560Z,102792.09
2023-04-15T19:27:27.802Z,102787.78
2023-04-15T19:30:33.644Z,102792.69
2023-04-15T19:33:40.643Z,102793.44
2023-04-15T19:36:46.111Z,102788.41
2023-04-15T19:39:51.200Z,102792.47
2023-04-15T19:42:56.509Z,102794.97
2023-04-15T19:46:01.659Z,102780.31
2023-04-15T19:49:08.334Z,102782.97
2023-04-15T19:52:14.345Z,102786.28
2023-04-15T19:55:19.710Z,102793.63
2023-04-15T19:58:24.782Z,102787.03
2023-04-15T20:01:30.299Z,102786.91
2023-04-15T20:04:37.088Z,102784.22
2023-04-15T20:07:43.191Z,102783.31
2023-04-15T20:10:48.296Z,102782.38
2023-04-15T20:13:53.767Z,102782.66
2023-04-15T20:16:58.817Z,102775.69
2023-04-15T20:20:06.255Z,102775.72
2023-04-15T20:23:11.426Z,102774.78
2023-04-15T20:26:18.189Z,102769.78
2023-04-15T20:29:23.227Z,102782.50
2023-04-15T20:32:28.989Z,102774.69
2023-04-15T20:35:35.570Z,102771.16
2023-04-15T20:38:40.757Z,102771.16
2023-04-15T20:41:45.817Z,102772.72
2023-04-15T20:44:51.245Z,102784.66
2023-04-15T20:47:56.385Z,102775.44
2023-04-15T20:51:03.021Z,102778.69
2023-04-15T20:54:09.092Z,102781.91
2023-04-15T20:57:14.458Z,102784.44
2023-04-15T21:00:19.792Z,102782.84
2023-04-15T21:03:25.162Z,102780.22
2023-04-15T21:06:31.683Z,102780.88
2023-04-15T21:09:38.474Z,102780.13
2023-04-15T21:12:44.096Z,102770.91
2023-04-15T21:15:53.322Z,102773.97
2023-04-15T21:18:58.368Z,102777.44
2023-04-15T21:22:05.295Z,102771.56
2023-04-15T21:25:12.385Z,102776.59
2023-04-15T21:28:17.512Z,102776.69
2023-04-15T21:31:22.761Z,102768.34
2023-04-15T21:34:28.058Z,102777.94
2023-04-15T21:37:34.475Z,102776.31
2023-04-15T21:40:40.801Z,102786.09
2023-04-15T21:43:45.876Z,102788.78
2023-04-15T21:46:51.534Z,102785.53
2023-04-15T21:49:56.952Z,102781.84
2023-04-15T21:53:03.669Z,102782.84
2023-04-15T21:56:09.589Z,102780.31
2023-04-15T21:59:15.211Z,102782.91
2023-04-15T22:02:20.472Z,102785.53
2023-04-15T22:05:26.528Z,102778.91
2023-04-15T22:08:41.244Z,102788.88
2023-04-15T22:11:50.106Z,102788.66
2023-04-15T22:14:56.499Z,102791.19
2023-04-15T22:18:01.599Z,102782.72
2023-04-15T22:21:06.732Z,102793.81
2023-04-15T22:24:36.914Z,102791.16
2023-04-15T22:27:38.805Z,102796.63
2023-04-15T22:30:44.136Z,102786.00
2023-04-15T22:33:49.363Z,102790.91
2023-04-15T22:36:54.870Z,102794.75
2023-04-15T22:40:02.286Z,102795.97
2023-04-15T22:43:07.408Z,102799.50
2023-04-15T22:46:12.475Z,102792.13
2023-04-15T22:49:17.803Z,102797.22
2023-04-15T22:52:30.188Z,102790.22
2023-04-15T22:55:37.715Z,102799.81
2023-04-15T22:58:42.720Z,102801.53
2023-04-15T23:01:48.368Z,102800.31
2023-04-15T23:04:53.792Z,102796.88
2023-04-15T23:07:58.926Z,102804.25
2023-04-15T23:11:06.430Z,102810.22
2023-04-15T23:14:12.806Z,102796.81
2023-04-15T23:17:17.870Z,102805.13
2023-04-15T23:20:22.993Z,102805.41
2023-04-15T23:23:28.173Z,102807.63
2023-04-15T23:26:34.687Z,102801.91
2023-04-15T23:29:40.105Z,102808.47
2023-04-15T23:32:45.240Z,102803.00
2023-04-15T23:35:50.375Z,102795.03
2023-04-15T23:38:55.539Z,102813.63
2023-04-15T23:42:02.416Z,102814.50
2023-04-15T23:45:08.350Z,102806.59
2023-04-15T23:48:15.362Z,102807.41
2023-04-15T23:51:20.588Z,102796.31
2023-04-15T23:54:25.971Z,102802.59
2023-04-15T23:57:32.540Z,102799.59
